Main page
METAR-TAF:

METAR-TAF

Airports :

RAF Linton-on-Ouse

Linton-on-Ouse, England

latitude: 54-03N, longitude: 001-15W, elevation: 16 m

Current weather observation

The report was made 1 hour and 22 minutes ago, at 16:50 UTC
Wind 6 kt from the Southwest
Temperature 7°C
Humidity 70%
Pressure 1013 hPa
Visibility 10 km or more

METAR: EGXU 251650Z AUTO 22006KT 9999 SCT025/// BKN032/// 07/02 Q1013

Time: 18:12 (18:12 UTC)

Forecast

The report was made 7 hours and 46 minutes ago, at 10:26 UTC
Forecast valid from 25 at 12 UTC to 25 at 18 UTC
Wind 8 kt from the South
Visibility 10 km or more
Broken clouds at a height of 2200 ft
Temporary
from 25 at 12 UTC to 25 at 18 UTC
Broken clouds at a height of 2500 ft

TAF: EGXU 251026Z 2512/2518 19008KT 9999 BKN022 TEMPO 2512/2518 BKN025

Weather observations and forecasts of more than 4000 airports (METAR and TAF reports).

The available stations are represented by yellow and red dots on the map.

Hover mouse over dot to see the name of the station.

Then click to see weather observations and forecasts.

To change the map : click on the green buttons with a black cross to zoom in, on the green button with a dash to zoom out, or on the green arrows for adjacent maps.


METAR-TAF: